sensor_id;sensor_type;location;lat;lon;timestamp;P1;durP1;ratioP1;P2;durP2;ratioP2
51238;SDS011;38154;47.548;18.828;2023-02-18T00:02:14;14.43;;;5.57;;
51238;SDS011;38154;47.548;18.828;2023-02-18T00:04:40;12.33;;;5.43;;
51238;SDS011;38154;47.548;18.828;2023-02-18T00:07:06;12.53;;;5.20;;
51238;SDS011;38154;47.548;18.828;2023-02-18T00:09:32;19.45;;;6.03;;
51238;SDS011;38154;47.548;18.828;2023-02-18T00:11:58;17.27;;;6.20;;
51238;SDS011;38154;47.548;18.828;2023-02-18T00:14:23;42.57;;;11.93;;
51238;SDS011;38154;47.548;18.828;2023-02-18T00:16:49;39.00;;;9.27;;
51238;SDS011;38154;47.548;18.828;2023-02-18T00:19:16;52.43;;;14.07;;
51238;SDS011;38154;47.548;18.828;2023-02-18T00:21:44;29.90;;;10.07;;
51238;SDS011;38154;47.548;18.828;2023-02-18T00:24:11;9.27;;;3.90;;
51238;SDS011;38154;47.548;18.828;2023-02-18T00:26:40;5.85;;;2.60;;
51238;SDS011;38154;47.548;18.828;2023-02-18T00:31:33;4.53;;;2.08;;
51238;SDS011;38154;47.548;18.828;2023-02-18T00:34:00;3.60;;;1.50;;
51238;SDS011;38154;47.548;18.828;2023-02-18T00:38:54;4.37;;;1.95;;
51238;SDS011;38154;47.548;18.828;2023-02-18T00:41:23;1.42;;;1.27;;
51238;SDS011;38154;47.548;18.828;2023-02-18T00:43:50;1.75;;;1.62;;
51238;SDS011;38154;47.548;18.828;2023-02-18T00:46:16;3.72;;;1.27;;
51238;SDS011;38154;47.548;18.828;2023-02-18T00:48:43;1.58;;;1.02;;
51238;SDS011;38154;47.548;18.828;2023-02-18T00:51:09;2.03;;;1.40;;
51238;SDS011;38154;47.548;18.828;2023-02-18T00:53:36;5.47;;;1.62;;
51238;SDS011;38154;47.548;18.828;2023-02-18T00:56:03;1.65;;;1.33;;
51238;SDS011;38154;47.548;18.828;2023-02-18T01:00:56;1.60;;;1.23;;
51238;SDS011;38154;47.548;18.828;2023-02-18T01:03:21;2.30;;;1.50;;
51238;SDS011;38154;47.548;18.828;2023-02-18T01:05:48;1.35;;;1.02;;
51238;SDS011;38154;47.548;18.828;2023-02-18T01:08:15;2.53;;;1.20;;
51238;SDS011;38154;47.548;18.828;2023-02-18T01:10:42;1.80;;;1.20;;
51238;SDS011;38154;47.548;18.828;2023-02-18T01:13:10;1.12;;;1.00;;
51238;SDS011;38154;47.548;18.828;2023-02-18T01:15:37;4.05;;;1.25;;
51238;SDS011;38154;47.548;18.828;2023-02-18T01:18:04;1.33;;;1.12;;
51238;SDS011;38154;47.548;18.828;2023-02-18T01:20:32;4.10;;;0.98;;
51238;SDS011;38154;47.548;18.828;2023-02-18T01:23:02;1.42;;;0.88;;
51238;SDS011;38154;47.548;18.828;2023-02-18T01:25:29;1.25;;;0.77;;
51238;SDS011;38154;47.548;18.828;2023-02-18T01:30:21;0.88;;;0.88;;
51238;SDS011;38154;47.548;18.828;2023-02-18T01:32:48;0.85;;;0.85;;
51238;SDS011;38154;47.548;18.828;2023-02-18T01:35:14;1.17;;;0.77;;
51238;SDS011;38154;47.548;18.828;2023-02-18T01:37:41;0.77;;;0.77;;
51238;SDS011;38154;47.548;18.828;2023-02-18T01:40:10;1.20;;;1.10;;
51238;SDS011;38154;47.548;18.828;2023-02-18T01:42:38;0.65;;;0.65;;
51238;SDS011;38154;47.548;18.828;2023-02-18T01:48:20;3.33;;;0.70;;
51238;SDS011;38154;47.548;18.828;2023-02-18T01:50:54;1.80;;;1.08;;
51238;SDS011;38154;47.548;18.828;2023-02-18T01:53:32;0.73;;;0.73;;
51238;SDS011;38154;47.548;18.828;2023-02-18T01:56:04;0.70;;;0.70;;
51238;SDS011;38154;47.548;18.828;2023-02-18T01:58:35;0.95;;;0.90;;
51238;SDS011;38154;47.548;18.828;2023-02-18T02:01:02;0.93;;;0.73;;
51238;SDS011;38154;47.548;18.828;2023-02-18T02:05:54;0.95;;;0.80;;
51238;SDS011;38154;47.548;18.828;2023-02-18T02:08:20;0.70;;;0.70;;
51238;SDS011;38154;47.548;18.828;2023-02-18T02:16:27;0.85;;;0.85;;
51238;SDS011;38154;47.548;18.828;2023-02-18T02:19:07;0.75;;;0.75;;
51238;SDS011;38154;47.548;18.828;2023-02-18T02:22:25;0.50;;;0.50;;
51238;SDS011;38154;47.548;18.828;2023-02-18T02:38:54;0.73;;;0.73;;
51238;SDS011;38154;47.548;18.828;2023-02-18T02:44:30;1.00;;;0.62;;
51238;SDS011;38154;47.548;18.828;2023-02-18T02:47:01;0.60;;;0.60;;
51238;SDS011;38154;47.548;18.828;2023-02-18T02:52:23;2.42;;;0.70;;
51238;SDS011;38154;47.548;18.828;2023-02-18T02:54:55;1.65;;;0.65;;
51238;SDS011;38154;47.548;18.828;2023-02-18T02:59:48;0.60;;;0.60;;
51238;SDS011;38154;47.548;18.828;2023-02-18T03:02:24;1.08;;;0.68;;
51238;SDS011;38154;47.548;18.828;2023-02-18T03:10:58;1.12;;;1.02;;
51238;SDS011;38154;47.548;18.828;2023-02-18T03:18:44;0.75;;;0.75;;
51238;SDS011;38154;47.548;18.828;2023-02-18T03:24:07;0.57;;;0.57;;
51238;SDS011;38154;47.548;18.828;2023-02-18T03:27:01;1.27;;;0.52;;
51238;SDS011;38154;47.548;18.828;2023-02-18T03:29:38;0.85;;;0.75;;
51238;SDS011;38154;47.548;18.828;2023-02-18T03:32:07;0.77;;;0.77;;
51238;SDS011;38154;47.548;18.828;2023-02-18T03:34:37;0.70;;;0.70;;
51238;SDS011;38154;47.548;18.828;2023-02-18T03:37:10;1.92;;;1.75;;
51238;SDS011;38154;47.548;18.828;2023-02-18T03:39:39;1.02;;;0.85;;
51238;SDS011;38154;47.548;18.828;2023-02-18T03:42:09;0.80;;;0.80;;
51238;SDS011;38154;47.548;18.828;2023-02-18T03:44:35;0.55;;;0.55;;
51238;SDS011;38154;47.548;18.828;2023-02-18T03:47:01;1.03;;;0.50;;
51238;SDS011;38154;47.548;18.828;2023-02-18T03:49:27;0.50;;;0.50;;
51238;SDS011;38154;47.548;18.828;2023-02-18T03:51:53;0.60;;;0.60;;
51238;SDS011;38154;47.548;18.828;2023-02-18T03:54:19;0.83;;;0.70;;
51238;SDS011;38154;47.548;18.828;2023-02-18T03:56:45;0.73;;;0.70;;
51238;SDS011;38154;47.548;18.828;2023-02-18T03:59:11;1.17;;;0.73;;
51238;SDS011;38154;47.548;18.828;2023-02-18T04:01:38;0.57;;;0.57;;
51238;SDS011;38154;47.548;18.828;2023-02-18T04:04:04;0.90;;;0.68;;
51238;SDS011;38154;47.548;18.828;2023-02-18T04:06:30;0.70;;;0.70;;
51238;SDS011;38154;47.548;18.828;2023-02-18T04:08:56;0.90;;;0.73;;
51238;SDS011;38154;47.548;18.828;2023-02-18T04:11:22;0.80;;;0.80;;
51238;SDS011;38154;47.548;18.828;2023-02-18T04:13:48;1.13;;;1.03;;
51238;SDS011;38154;47.548;18.828;2023-02-18T04:16:14;1.07;;;0.90;;
51238;SDS011;38154;47.548;18.828;2023-02-18T04:18:40;0.70;;;0.70;;
51238;SDS011;38154;47.548;18.828;2023-02-18T04:21:06;0.60;;;0.53;;
51238;SDS011;38154;47.548;18.828;2023-02-18T04:23:31;1.00;;;0.60;;
51238;SDS011;38154;47.548;18.828;2023-02-18T04:25:57;2.33;;;0.80;;
51238;SDS011;38154;47.548;18.828;2023-02-18T04:28:23;1.00;;;0.60;;
51238;SDS011;38154;47.548;18.828;2023-02-18T04:30:49;0.60;;;0.60;;
51238;SDS011;38154;47.548;18.828;2023-02-18T04:33:15;0.93;;;0.83;;
51238;SDS011;38154;47.548;18.828;2023-02-18T04:35:41;0.90;;;0.90;;
51238;SDS011;38154;47.548;18.828;2023-02-18T04:38:07;0.70;;;0.70;;
51238;SDS011;38154;47.548;18.828;2023-02-18T04:40:35;3.42;;;1.58;;
51238;SDS011;38154;47.548;18.828;2023-02-18T04:43:02;0.82;;;0.82;;
51238;SDS011;38154;47.548;18.828;2023-02-18T04:45:28;2.00;;;1.27;;
51238;SDS011;38154;47.548;18.828;2023-02-18T04:47:54;2.00;;;1.10;;
51238;SDS011;38154;47.548;18.828;2023-02-18T04:50:20;1.23;;;0.90;;
51238;SDS011;38154;47.548;18.828;2023-02-18T04:52:46;1.37;;;0.90;;
51238;SDS011;38154;47.548;18.828;2023-02-18T04:55:12;0.83;;;0.70;;
51238;SDS011;38154;47.548;18.828;2023-02-18T04:57:38;0.75;;;0.73;;
51238;SDS011;38154;47.548;18.828;2023-02-18T05:00:05;0.97;;;0.83;;
51238;SDS011;38154;47.548;18.828;2023-02-18T05:02:32;0.75;;;0.70;;
51238;SDS011;38154;47.548;18.828;2023-02-18T05:04:58;1.60;;;0.93;;
51238;SDS011;38154;47.548;18.828;2023-02-18T05:07:24;0.50;;;0.50;;
51238;SDS011;38154;47.548;18.828;2023-02-18T05:09:50;1.53;;;1.10;;
51238;SDS011;38154;47.548;18.828;2023-02-18T05:12:16;1.33;;;0.97;;
51238;SDS011;38154;47.548;18.828;2023-02-18T05:14:42;2.17;;;0.77;;
51238;SDS011;38154;47.548;18.828;2023-02-18T05:17:08;4.33;;;0.60;;
51238;SDS011;38154;47.548;18.828;2023-02-18T05:19:34;0.83;;;0.83;;
51238;SDS011;38154;47.548;18.828;2023-02-18T05:22:00;1.30;;;1.00;;
51238;SDS011;38154;47.548;18.828;2023-02-18T05:24:26;1.03;;;0.90;;
51238;SDS011;38154;47.548;18.828;2023-02-18T05:26:51;1.57;;;1.00;;
51238;SDS011;38154;47.548;18.828;2023-02-18T05:29:17;1.27;;;0.93;;
51238;SDS011;38154;47.548;18.828;2023-02-18T05:31:43;2.77;;;0.80;;
51238;SDS011;38154;47.548;18.828;2023-02-18T05:34:09;2.03;;;1.50;;
51238;SDS011;38154;47.548;18.828;2023-02-18T05:36:35;2.97;;;1.43;;
51238;SDS011;38154;47.548;18.828;2023-02-18T05:39:01;0.75;;;0.75;;
51238;SDS011;38154;47.548;18.828;2023-02-18T05:41:27;0.70;;;0.70;;
51238;SDS011;38154;47.548;18.828;2023-02-18T05:43:53;1.87;;;0.87;;
51238;SDS011;38154;47.548;18.828;2023-02-18T05:46:37;0.98;;;0.90;;
51238;SDS011;38154;47.548;18.828;2023-02-18T05:49:03;1.10;;;0.97;;
51238;SDS011;38154;47.548;18.828;2023-02-18T05:51:29;0.70;;;0.70;;
51238;SDS011;38154;47.548;18.828;2023-02-18T05:53:55;1.33;;;0.80;;
51238;SDS011;38154;47.548;18.828;2023-02-18T05:56:21;0.87;;;0.87;;
51238;SDS011;38154;47.548;18.828;2023-02-18T05:58:47;0.70;;;0.70;;
51238;SDS011;38154;47.548;18.828;2023-02-18T06:01:13;1.50;;;1.00;;
51238;SDS011;38154;47.548;18.828;2023-02-18T06:03:39;1.10;;;1.10;;
51238;SDS011;38154;47.548;18.828;2023-02-18T06:06:05;1.13;;;0.70;;
51238;SDS011;38154;47.548;18.828;2023-02-18T06:08:31;0.85;;;0.80;;
51238;SDS011;38154;47.548;18.828;2023-02-18T06:10:57;1.63;;;1.40;;
51238;SDS011;38154;47.548;18.828;2023-02-18T06:13:22;1.60;;;1.30;;
51238;SDS011;38154;47.548;18.828;2023-02-18T06:15:49;1.33;;;1.23;;
51238;SDS011;38154;47.548;18.828;2023-02-18T06:18:16;1.45;;;0.90;;
51238;SDS011;38154;47.548;18.828;2023-02-18T06:20:42;0.90;;;0.77;;
51238;SDS011;38154;47.548;18.828;2023-02-18T06:23:08;0.73;;;0.60;;
51238;SDS011;38154;47.548;18.828;2023-02-18T06:25:34;1.47;;;0.90;;
51238;SDS011;38154;47.548;18.828;2023-02-18T06:28:00;0.98;;;0.93;;
51238;SDS011;38154;47.548;18.828;2023-02-18T06:30:26;1.33;;;0.90;;
51238;SDS011;38154;47.548;18.828;2023-02-18T06:32:52;0.90;;;0.70;;
51238;SDS011;38154;47.548;18.828;2023-02-18T06:35:18;2.70;;;1.40;;
51238;SDS011;38154;47.548;18.828;2023-02-18T06:37:44;1.00;;;1.00;;
51238;SDS011;38154;47.548;18.828;2023-02-18T06:40:10;0.80;;;0.80;;
51238;SDS011;38154;47.548;18.828;2023-02-18T06:42:36;1.33;;;0.98;;
51238;SDS011;38154;47.548;18.828;2023-02-18T06:45:02;2.20;;;0.70;;
51238;SDS011;38154;47.548;18.828;2023-02-18T06:47:28;0.87;;;0.87;;
51238;SDS011;38154;47.548;18.828;2023-02-18T06:49:54;1.08;;;1.02;;
51238;SDS011;38154;47.548;18.828;2023-02-18T06:52:20;1.23;;;1.13;;
51238;SDS011;38154;47.548;18.828;2023-02-18T06:54:46;0.77;;;0.73;;
51238;SDS011;38154;47.548;18.828;2023-02-18T06:57:11;1.60;;;1.27;;
51238;SDS011;38154;47.548;18.828;2023-02-18T06:59:37;1.90;;;1.23;;
51238;SDS011;38154;47.548;18.828;2023-02-18T07:02:03;1.77;;;0.87;;
51238;SDS011;38154;47.548;18.828;2023-02-18T07:04:29;2.67;;;1.53;;
51238;SDS011;38154;47.548;18.828;2023-02-18T07:06:55;2.17;;;0.93;;
51238;SDS011;38154;47.548;18.828;2023-02-18T07:09:21;2.40;;;1.30;;
51238;SDS011;38154;47.548;18.828;2023-02-18T07:11:47;1.40;;;1.30;;
51238;SDS011;38154;47.548;18.828;2023-02-18T07:14:13;2.03;;;1.37;;
51238;SDS011;38154;47.548;18.828;2023-02-18T07:16:39;1.50;;;1.10;;
51238;SDS011;38154;47.548;18.828;2023-02-18T07:19:04;1.53;;;1.03;;
51238;SDS011;38154;47.548;18.828;2023-02-18T07:21:30;1.33;;;0.93;;
51238;SDS011;38154;47.548;18.828;2023-02-18T07:23:56;2.87;;;1.63;;
51238;SDS011;38154;47.548;18.828;2023-02-18T07:26:22;1.23;;;0.93;;
51238;SDS011;38154;47.548;18.828;2023-02-18T07:28:48;0.77;;;0.77;;
51238;SDS011;38154;47.548;18.828;2023-02-18T07:31:14;2.17;;;1.23;;
51238;SDS011;38154;47.548;18.828;2023-02-18T07:33:40;1.53;;;1.10;;
51238;SDS011;38154;47.548;18.828;2023-02-18T07:36:06;3.53;;;1.23;;
51238;SDS011;38154;47.548;18.828;2023-02-18T07:38:32;1.52;;;1.27;;
51238;SDS011;38154;47.548;18.828;2023-02-18T07:40:58;1.10;;;1.00;;
51238;SDS011;38154;47.548;18.828;2023-02-18T07:43:24;2.47;;;1.17;;
51238;SDS011;38154;47.548;18.828;2023-02-18T07:45:50;0.98;;;0.98;;
51238;SDS011;38154;47.548;18.828;2023-02-18T07:48:16;3.93;;;1.20;;
51238;SDS011;38154;47.548;18.828;2023-02-18T07:50:43;2.33;;;1.20;;
51238;SDS011;38154;47.548;18.828;2023-02-18T07:53:10;0.85;;;0.75;;
51238;SDS011;38154;47.548;18.828;2023-02-18T07:55:38;0.95;;;0.77;;
51238;SDS011;38154;47.548;18.828;2023-02-18T07:58:22;1.40;;;0.75;;
51238;SDS011;38154;47.548;18.828;2023-02-18T08:00:51;0.77;;;0.77;;
51238;SDS011;38154;47.548;18.828;2023-02-18T08:03:22;0.98;;;0.85;;
51238;SDS011;38154;47.548;18.828;2023-02-18T08:05:50;1.00;;;0.75;;
51238;SDS011;38154;47.548;18.828;2023-02-18T08:08:18;1.27;;;1.05;;
51238;SDS011;38154;47.548;18.828;2023-02-18T08:10:49;2.22;;;1.17;;
51238;SDS011;38154;47.548;18.828;2023-02-18T08:13:17;0.80;;;0.80;;
51238;SDS011;38154;47.548;18.828;2023-02-18T08:15:43;2.15;;;0.70;;
51238;SDS011;38154;47.548;18.828;2023-02-18T08:18:14;1.40;;;1.00;;
51238;SDS011;38154;47.548;18.828;2023-02-18T08:20:46;0.68;;;0.68;;
51238;SDS011;38154;47.548;18.828;2023-02-18T08:25:38;2.50;;;0.90;;
51238;SDS011;38154;47.548;18.828;2023-02-18T08:28:04;0.87;;;0.87;;
51238;SDS011;38154;47.548;18.828;2023-02-18T08:30:31;0.73;;;0.73;;
51238;SDS011;38154;47.548;18.828;2023-02-18T08:32:57;1.23;;;0.82;;
51238;SDS011;38154;47.548;18.828;2023-02-18T08:35:23;1.03;;;0.80;;
51238;SDS011;38154;47.548;18.828;2023-02-18T08:37:48;1.43;;;0.80;;
51238;SDS011;38154;47.548;18.828;2023-02-18T08:40:14;1.43;;;0.90;;
51238;SDS011;38154;47.548;18.828;2023-02-18T08:42:40;1.13;;;1.03;;
51238;SDS011;38154;47.548;18.828;2023-02-18T08:45:06;3.27;;;1.80;;
51238;SDS011;38154;47.548;18.828;2023-02-18T08:47:33;1.20;;;1.10;;
51238;SDS011;38154;47.548;18.828;2023-02-18T08:49:58;2.57;;;1.20;;
51238;SDS011;38154;47.548;18.828;2023-02-18T08:52:24;1.83;;;1.20;;
51238;SDS011;38154;47.548;18.828;2023-02-18T08:54:51;1.40;;;1.02;;
51238;SDS011;38154;47.548;18.828;2023-02-18T08:57:16;1.70;;;0.90;;
51238;SDS011;38154;47.548;18.828;2023-02-18T08:59:42;1.83;;;1.17;;
51238;SDS011;38154;47.548;18.828;2023-02-18T09:02:10;2.40;;;0.93;;
51238;SDS011;38154;47.548;18.828;2023-02-18T09:04:37;1.23;;;1.12;;
51238;SDS011;38154;47.548;18.828;2023-02-18T09:07:03;2.37;;;1.37;;
51238;SDS011;38154;47.548;18.828;2023-02-18T09:09:29;4.47;;;1.40;;
51238;SDS011;38154;47.548;18.828;2023-02-18T09:11:55;5.13;;;1.60;;
51238;SDS011;38154;47.548;18.828;2023-02-18T09:14:21;3.17;;;1.35;;
51238;SDS011;38154;47.548;18.828;2023-02-18T09:16:47;1.60;;;1.20;;
51238;SDS011;38154;47.548;18.828;2023-02-18T09:19:15;2.60;;;1.70;;
51238;SDS011;38154;47.548;18.828;2023-02-18T09:24:08;1.67;;;1.50;;
51238;SDS011;38154;47.548;18.828;2023-02-18T09:26:34;2.22;;;0.95;;
51238;SDS011;38154;47.548;18.828;2023-02-18T09:29:01;1.58;;;0.80;;
51238;SDS011;38154;47.548;18.828;2023-02-18T09:31:27;2.20;;;0.75;;
51238;SDS011;38154;47.548;18.828;2023-02-18T09:33:55;1.70;;;0.93;;
51238;SDS011;38154;47.548;18.828;2023-02-18T09:36:22;1.02;;;0.98;;
51238;SDS011;38154;47.548;18.828;2023-02-18T09:38:49;1.58;;;1.00;;
51238;SDS011;38154;47.548;18.828;2023-02-18T09:43:50;1.10;;;0.85;;
51238;SDS011;38154;47.548;18.828;2023-02-18T09:46:24;0.50;;;0.50;;
51238;SDS011;38154;47.548;18.828;2023-02-18T09:48:55;2.67;;;0.88;;
51238;SDS011;38154;47.548;18.828;2023-02-18T09:51:22;1.70;;;1.08;;
51238;SDS011;38154;47.548;18.828;2023-02-18T09:53:48;1.07;;;0.90;;
51238;SDS011;38154;47.548;18.828;2023-02-18T09:56:16;1.13;;;0.63;;
51238;SDS011;38154;47.548;18.828;2023-02-18T09:58:47;2.20;;;0.98;;
51238;SDS011;38154;47.548;18.828;2023-02-18T10:01:24;2.90;;;1.35;;
51238;SDS011;38154;47.548;18.828;2023-02-18T10:03:55;1.77;;;0.82;;
51238;SDS011;38154;47.548;18.828;2023-02-18T10:06:31;1.77;;;0.75;;
51238;SDS011;38154;47.548;18.828;2023-02-18T10:09:02;2.55;;;1.00;;
51238;SDS011;38154;47.548;18.828;2023-02-18T10:11:39;0.68;;;0.65;;
51238;SDS011;38154;47.548;18.828;2023-02-18T10:14:10;2.15;;;1.17;;
51238;SDS011;38154;47.548;18.828;2023-02-18T10:16:38;1.02;;;0.90;;
51238;SDS011;38154;47.548;18.828;2023-02-18T10:19:27;4.05;;;0.98;;
51238;SDS011;38154;47.548;18.828;2023-02-18T10:21:54;0.95;;;0.85;;
51238;SDS011;38154;47.548;18.828;2023-02-18T10:26:56;1.60;;;0.95;;
51238;SDS011;38154;47.548;18.828;2023-02-18T10:29:23;2.28;;;1.50;;
51238;SDS011;38154;47.548;18.828;2023-02-18T10:34:33;3.00;;;1.48;;
51238;SDS011;38154;47.548;18.828;2023-02-18T10:37:08;2.35;;;1.60;;
51238;SDS011;38154;47.548;18.828;2023-02-18T10:39:58;3.95;;;1.87;;
51238;SDS011;38154;47.548;18.828;2023-02-18T10:45:11;5.00;;;2.17;;
51238;SDS011;38154;47.548;18.828;2023-02-18T10:47:42;5.95;;;2.30;;
51238;SDS011;38154;47.548;18.828;2023-02-18T10:50:41;6.85;;;3.53;;
51238;SDS011;38154;47.548;18.828;2023-02-18T10:55:44;5.12;;;2.10;;
51238;SDS011;38154;47.548;18.828;2023-02-18T11:01:12;3.03;;;1.90;;
51238;SDS011;38154;47.548;18.828;2023-02-18T11:03:41;2.10;;;1.12;;
51238;SDS011;38154;47.548;18.828;2023-02-18T11:09:02;4.35;;;2.03;;
51238;SDS011;38154;47.548;18.828;2023-02-18T11:11:31;5.68;;;2.62;;
51238;SDS011;38154;47.548;18.828;2023-02-18T11:14:02;7.35;;;2.97;;
51238;SDS011;38154;47.548;18.828;2023-02-18T11:16:40;2.83;;;1.58;;
51238;SDS011;38154;47.548;18.828;2023-02-18T11:21:52;3.33;;;1.10;;
51238;SDS011;38154;47.548;18.828;2023-02-18T11:24:32;1.83;;;1.17;;
51238;SDS011;38154;47.548;18.828;2023-02-18T11:27:09;3.97;;;1.77;;
51238;SDS011;38154;47.548;18.828;2023-02-18T11:29:38;3.62;;;1.52;;
51238;SDS011;38154;47.548;18.828;2023-02-18T11:32:04;6.03;;;1.43;;
51238;SDS011;38154;47.548;18.828;2023-02-18T11:34:36;4.05;;;2.17;;
51238;SDS011;38154;47.548;18.828;2023-02-18T11:37:08;6.28;;;1.48;;
51238;SDS011;38154;47.548;18.828;2023-02-18T11:39:40;2.42;;;1.40;;
51238;SDS011;38154;47.548;18.828;2023-02-18T11:42:12;1.17;;;1.08;;
51238;SDS011;38154;47.548;18.828;2023-02-18T11:44:40;1.25;;;1.05;;
51238;SDS011;38154;47.548;18.828;2023-02-18T11:49:40;2.80;;;1.80;;
51238;SDS011;38154;47.548;18.828;2023-02-18T11:54:33;1.10;;;1.00;;
51238;SDS011;38154;47.548;18.828;2023-02-18T11:59:29;1.48;;;0.80;;
51238;SDS011;38154;47.548;18.828;2023-02-18T12:04:49;1.52;;;0.60;;
51238;SDS011;38154;47.548;18.828;2023-02-18T12:07:25;1.05;;;0.88;;
51238;SDS011;38154;47.548;18.828;2023-02-18T12:09:58;4.55;;;2.42;;
51238;SDS011;38154;47.548;18.828;2023-02-18T12:12:28;1.70;;;1.60;;
51238;SDS011;38154;47.548;18.828;2023-02-18T12:14:58;7.50;;;4.10;;
51238;SDS011;38154;47.548;18.828;2023-02-18T12:25:49;1.12;;;0.70;;
51238;SDS011;38154;47.548;18.828;2023-02-18T12:44:12;2.05;;;0.50;;
51238;SDS011;38154;47.548;18.828;2023-02-18T12:46:51;0.50;;;0.50;;
51238;SDS011;38154;47.548;18.828;2023-02-18T12:55:15;1.98;;;1.15;;
51238;SDS011;38154;47.548;18.828;2023-02-18T13:01:02;1.17;;;0.88;;
51238;SDS011;38154;47.548;18.828;2023-02-18T13:12:38;1.62;;;0.80;;
51238;SDS011;38154;47.548;18.828;2023-02-18T13:18:15;1.70;;;0.93;;
51238;SDS011;38154;47.548;18.828;2023-02-18T13:20:50;2.17;;;0.95;;
51238;SDS011;38154;47.548;18.828;2023-02-18T13:23:21;0.50;;;0.47;;
51238;SDS011;38154;47.548;18.828;2023-02-18T13:25:52;3.28;;;1.00;;
51238;SDS011;38154;47.548;18.828;2023-02-18T13:28:25;0.40;;;0.40;;
51238;SDS011;38154;47.548;18.828;2023-02-18T13:31:14;1.73;;;0.70;;
51238;SDS011;38154;47.548;18.828;2023-02-18T13:33:50;0.50;;;0.50;;
51238;SDS011;38154;47.548;18.828;2023-02-18T13:39:20;0.30;;;0.30;;
51238;SDS011;38154;47.548;18.828;2023-02-18T13:41:48;0.70;;;0.70;;
51238;SDS011;38154;47.548;18.828;2023-02-18T13:46:48;0.60;;;0.40;;
51238;SDS011;38154;47.548;18.828;2023-02-18T13:49:25;1.95;;;1.05;;
51238;SDS011;38154;47.548;18.828;2023-02-18T13:51:57;0.45;;;0.45;;
51238;SDS011;38154;47.548;18.828;2023-02-18T13:54:42;0.65;;;0.30;;
51238;SDS011;38154;47.548;18.828;2023-02-18T13:57:18;1.10;;;0.57;;
51238;SDS011;38154;47.548;18.828;2023-02-18T13:59:47;0.47;;;0.47;;
51238;SDS011;38154;47.548;18.828;2023-02-18T14:02:28;0.52;;;0.52;;
51238;SDS011;38154;47.548;18.828;2023-02-18T14:07:46;0.50;;;0.50;;
51238;SDS011;38154;47.548;18.828;2023-02-18T14:17:48;0.73;;;0.70;;
51238;SDS011;38154;47.548;18.828;2023-02-18T14:20:41;0.95;;;0.60;;
51238;SDS011;38154;47.548;18.828;2023-02-18T14:31:01;1.17;;;0.90;;
51238;SDS011;38154;47.548;18.828;2023-02-18T14:33:29;0.70;;;0.65;;
51238;SDS011;38154;47.548;18.828;2023-02-18T14:36:08;1.00;;;0.90;;
51238;SDS011;38154;47.548;18.828;2023-02-18T14:41:40;1.33;;;1.12;;
51238;SDS011;38154;47.548;18.828;2023-02-18T14:47:10;1.27;;;1.05;;
51238;SDS011;38154;47.548;18.828;2023-02-18T14:49:44;1.20;;;1.10;;
51238;SDS011;38154;47.548;18.828;2023-02-18T14:52:18;1.80;;;1.40;;
51238;SDS011;38154;47.548;18.828;2023-02-18T14:54:51;2.42;;;1.40;;
51238;SDS011;38154;47.548;18.828;2023-02-18T14:57:18;3.08;;;1.50;;
51238;SDS011;38154;47.548;18.828;2023-02-18T14:59:48;2.05;;;1.33;;
51238;SDS011;38154;47.548;18.828;2023-02-18T15:02:24;2.05;;;1.40;;
51238;SDS011;38154;47.548;18.828;2023-02-18T15:05:16;5.12;;;1.23;;
51238;SDS011;38154;47.548;18.828;2023-02-18T15:10:21;4.57;;;2.65;;
51238;SDS011;38154;47.548;18.828;2023-02-18T15:12:47;2.78;;;1.73;;
51238;SDS011;38154;47.548;18.828;2023-02-18T15:15:13;2.63;;;1.87;;
51238;SDS011;38154;47.548;18.828;2023-02-18T15:17:45;4.53;;;2.17;;
51238;SDS011;38154;47.548;18.828;2023-02-18T15:20:13;2.45;;;1.90;;
51238;SDS011;38154;47.548;18.828;2023-02-18T15:22:40;6.95;;;3.45;;
51238;SDS011;38154;47.548;18.828;2023-02-18T15:25:08;2.33;;;2.03;;
51238;SDS011;38154;47.548;18.828;2023-02-18T15:27:38;6.72;;;2.17;;
51238;SDS011;38154;47.548;18.828;2023-02-18T15:33:01;5.82;;;3.53;;
51238;SDS011;38154;47.548;18.828;2023-02-18T15:35:28;18.70;;;6.83;;
51238;SDS011;38154;47.548;18.828;2023-02-18T15:37:58;18.92;;;7.90;;
51238;SDS011;38154;47.548;18.828;2023-02-18T15:40:29;19.17;;;7.60;;
51238;SDS011;38154;47.548;18.828;2023-02-18T15:42:58;19.45;;;8.75;;
51238;SDS011;38154;47.548;18.828;2023-02-18T15:45:30;16.23;;;8.90;;
51238;SDS011;38154;47.548;18.828;2023-02-18T15:47:59;22.92;;;9.82;;
51238;SDS011;38154;47.548;18.828;2023-02-18T15:55:28;27.23;;;11.40;;
51238;SDS011;38154;47.548;18.828;2023-02-18T15:57:59;28.95;;;11.27;;
51238;SDS011;38154;47.548;18.828;2023-02-18T16:00:34;27.90;;;11.93;;
51238;SDS011;38154;47.548;18.828;2023-02-18T16:03:21;27.77;;;10.52;;
51238;SDS011;38154;47.548;18.828;2023-02-18T16:09:01;37.17;;;12.85;;
51238;SDS011;38154;47.548;18.828;2023-02-18T16:11:49;21.50;;;9.65;;
51238;SDS011;38154;47.548;18.828;2023-02-18T16:17:18;22.58;;;10.48;;
51238;SDS011;38154;47.548;18.828;2023-02-18T16:27:48;27.02;;;11.38;;
51238;SDS011;38154;47.548;18.828;2023-02-18T16:30:19;31.35;;;12.27;;
51238;SDS011;38154;47.548;18.828;2023-02-18T16:32:49;32.20;;;11.05;;
51238;SDS011;38154;47.548;18.828;2023-02-18T16:35:16;38.17;;;12.82;;
51238;SDS011;38154;47.548;18.828;2023-02-18T16:37:43;30.70;;;10.60;;
51238;SDS011;38154;47.548;18.828;2023-02-18T16:42:59;28.40;;;12.05;;
51238;SDS011;38154;47.548;18.828;2023-02-18T16:45:37;30.02;;;12.63;;
51238;SDS011;38154;47.548;18.828;2023-02-18T16:48:05;35.00;;;13.15;;
51238;SDS011;38154;47.548;18.828;2023-02-18T16:50:36;37.50;;;13.10;;
51238;SDS011;38154;47.548;18.828;2023-02-18T16:53:02;32.22;;;13.15;;
51238;SDS011;38154;47.548;18.828;2023-02-18T16:55:28;40.17;;;14.17;;
51238;SDS011;38154;47.548;18.828;2023-02-18T16:57:55;35.05;;;14.23;;
51238;SDS011;38154;47.548;18.828;2023-02-18T17:00:21;34.00;;;13.50;;
51238;SDS011;38154;47.548;18.828;2023-02-18T17:02:48;36.72;;;13.60;;
51238;SDS011;38154;47.548;18.828;2023-02-18T17:05:19;35.85;;;13.45;;
51238;SDS011;38154;47.548;18.828;2023-02-18T17:07:47;28.35;;;12.88;;
51238;SDS011;38154;47.548;18.828;2023-02-18T17:10:13;28.90;;;12.75;;
51238;SDS011;38154;47.548;18.828;2023-02-18T17:12:40;32.70;;;13.35;;
51238;SDS011;38154;47.548;18.828;2023-02-18T17:15:12;26.67;;;11.85;;
51238;SDS011;38154;47.548;18.828;2023-02-18T17:17:39;32.38;;;13.50;;
51238;SDS011;38154;47.548;18.828;2023-02-18T17:20:05;30.73;;;13.10;;
51238;SDS011;38154;47.548;18.828;2023-02-18T17:22:32;33.58;;;13.73;;
51238;SDS011;38154;47.548;18.828;2023-02-18T17:24:58;34.27;;;12.63;;
51238;SDS011;38154;47.548;18.828;2023-02-18T17:27:24;40.78;;;17.23;;
51238;SDS011;38154;47.548;18.828;2023-02-18T17:29:49;47.65;;;18.33;;
51238;SDS011;38154;47.548;18.828;2023-02-18T17:32:15;35.08;;;14.45;;
51238;SDS011;38154;47.548;18.828;2023-02-18T17:34:41;53.28;;;18.95;;
51238;SDS011;38154;47.548;18.828;2023-02-18T17:37:13;35.05;;;15.27;;
51238;SDS011;38154;47.548;18.828;2023-02-18T17:39:39;32.38;;;12.50;;
51238;SDS011;38154;47.548;18.828;2023-02-18T17:42:05;32.92;;;12.98;;
51238;SDS011;38154;47.548;18.828;2023-02-18T17:44:34;36.70;;;12.82;;
51238;SDS011;38154;47.548;18.828;2023-02-18T17:47:00;32.70;;;12.07;;
51238;SDS011;38154;47.548;18.828;2023-02-18T17:49:26;35.60;;;13.13;;
51238;SDS011;38154;47.548;18.828;2023-02-18T17:51:52;37.50;;;12.23;;
51238;SDS011;38154;47.548;18.828;2023-02-18T17:54:18;37.63;;;12.30;;
51238;SDS011;38154;47.548;18.828;2023-02-18T17:56:47;31.90;;;13.15;;
51238;SDS011;38154;47.548;18.828;2023-02-18T17:59:12;42.15;;;13.80;;